createdAt,value
2022-09-13T00:00:00.184Z,983.8
2022-09-13T00:05:00.388Z,984
2022-09-13T00:10:00.191Z,983.6
2022-09-13T00:15:00.167Z,984
2022-09-13T00:20:00.186Z,984
2022-09-13T00:25:00.195Z,984
2022-09-13T00:30:00.178Z,984.3
2022-09-13T00:35:00.167Z,984
2022-09-13T00:40:00.261Z,984.3
2022-09-13T00:45:00.182Z,984.5
2022-09-13T00:50:00.173Z,984.7
2022-09-13T00:55:00.207Z,984.7
2022-09-13T01:00:00.198Z,984.7
2022-09-13T01:05:00.163Z,984.7
2022-09-13T01:10:00.459Z,984.9
2022-09-13T01:15:00.192Z,984.7
2022-09-13T01:20:00.171Z,984.5
2022-09-13T01:25:00.170Z,984.5
2022-09-13T01:30:00.174Z,984.5
2022-09-13T01:35:00.170Z,984.5
2022-09-13T01:40:00.255Z,984.7
2022-09-13T01:45:00.174Z,984.5
2022-09-13T01:50:00.215Z,984.7
2022-09-13T01:55:00.172Z,984.9
2022-09-13T02:00:00.189Z,984.9
2022-09-13T02:05:00.475Z,984.7
2022-09-13T02:10:00.464Z,984.9
2022-09-13T02:15:00.179Z,984.7
2022-09-13T02:20:00.224Z,984.9
2022-09-13T02:25:00.175Z,984.9
2022-09-13T02:30:00.446Z,984.7
2022-09-13T02:35:00.197Z,984.9
2022-09-13T02:40:00.304Z,984.9
2022-09-13T02:45:00.172Z,984.7
2022-09-13T02:50:00.174Z,984.9
2022-09-13T02:55:00.188Z,985.1
2022-09-13T03:00:00.186Z,985.4
2022-09-13T03:05:00.173Z,985.1
2022-09-13T03:10:00.166Z,985.1
2022-09-13T03:15:00.170Z,985.1
2022-09-13T03:20:00.169Z,985.4
2022-09-13T03:25:00.175Z,985.4
2022-09-13T03:30:00.223Z,985.4
2022-09-13T03:35:00.137Z,985.6
2022-09-13T03:40:00.543Z,985.8
2022-09-13T03:45:00.137Z,985.6
2022-09-13T03:50:00.183Z,985.4
2022-09-13T03:55:00.246Z,985.4
2022-09-13T04:00:00.177Z,985.6
2022-09-13T04:05:00.167Z,985.8
2022-09-13T04:10:00.340Z,985.8
2022-09-13T04:15:00.221Z,985.6
2022-09-13T04:20:00.200Z,985.6
2022-09-13T04:25:02.326Z,985.8
2022-09-13T04:30:00.184Z,985.8
2022-09-13T04:35:00.166Z,986
2022-09-13T04:40:00.244Z,986.2
2022-09-13T04:45:00.168Z,986
2022-09-13T04:50:00.190Z,985.8
2022-09-13T04:55:00.171Z,985.8
2022-09-13T05:00:00.181Z,986
2022-09-13T05:05:00.168Z,985.8
2022-09-13T05:10:00.207Z,985.8
2022-09-13T05:15:00.170Z,985.8
2022-09-13T05:20:00.168Z,986
2022-09-13T05:25:00.162Z,985.8
2022-09-13T05:30:00.233Z,986.2
2022-09-13T05:35:00.168Z,986
2022-09-13T05:40:11.162Z,986.2
2022-09-13T05:45:00.169Z,986.7
2022-09-13T05:50:13.549Z,986.7
2022-09-13T05:55:00.172Z,986.9
2022-09-13T06:00:00.198Z,986.9
2022-09-13T06:05:00.168Z,987.1
2022-09-13T06:10:00.182Z,987.1
2022-09-13T06:15:00.182Z,987.5
2022-09-13T06:20:00.182Z,987.7
2022-09-13T06:25:00.170Z,986.9
2022-09-13T06:30:00.179Z,985.6
2022-09-13T06:35:00.170Z,985.1
2022-09-13T06:40:00.239Z,985.8
2022-09-13T06:45:00.161Z,985.4
2022-09-13T06:50:00.172Z,984.5
2022-09-13T06:55:00.157Z,984.9
2022-09-13T07:00:00.294Z,983.4
2022-09-13T07:05:00.164Z,985.1
2022-09-13T07:10:00.519Z,983.6
2022-09-13T07:15:00.837Z,983.6
2022-09-13T07:20:00.508Z,983.2
2022-09-13T07:25:00.172Z,984
2022-09-13T07:30:00.166Z,984
2022-09-13T07:35:00.174Z,983.6
2022-09-13T07:40:00.233Z,981.4
2022-09-13T07:45:00.162Z,981
2022-09-13T07:50:00.178Z,980.1
2022-09-13T07:55:00.174Z,979.3
2022-09-13T08:00:00.181Z,979
2022-09-13T08:05:00.174Z,976.7
2022-09-13T08:10:00.169Z,976.2
2022-09-13T08:15:00.165Z,975.4
2022-09-13T08:20:00.207Z,974.5
2022-09-13T08:25:00.186Z,974
2022-09-13T08:30:00.180Z,972.7
2022-09-13T08:35:00.196Z,971.4
2022-09-13T08:40:00.295Z,970.8
2022-09-13T08:45:00.185Z,970.1
2022-09-13T08:50:00.172Z,969.7
2022-09-13T08:55:00.176Z,968.8
2022-09-13T09:00:00.186Z,968.8
2022-09-13T09:05:00.167Z,968.6
2022-09-13T09:10:00.182Z,968.2
2022-09-13T09:15:00.179Z,967.1
2022-09-13T09:20:00.177Z,966.9
2022-09-13T09:25:00.175Z,966.7
2022-09-13T09:30:00.172Z,965.8
2022-09-13T09:35:00.168Z,966.4
2022-09-13T09:40:00.351Z,965.6
2022-09-13T09:45:00.209Z,966.7
2022-09-13T09:50:00.172Z,965.4
2022-09-13T09:55:00.177Z,966.7
2022-09-13T10:00:00.177Z,965.4
2022-09-13T10:05:00.334Z,965.4
2022-09-13T10:10:00.535Z,964.5
2022-09-13T10:15:00.277Z,964.9
2022-09-13T10:20:00.296Z,963.6
2022-09-13T10:25:00.331Z,964
2022-09-13T10:30:00.338Z,963.2
2022-09-13T10:35:00.260Z,964
2022-09-13T10:40:00.338Z,963.6
2022-09-13T10:45:00.258Z,964.5
2022-09-13T10:50:00.194Z,963.8
2022-09-13T10:55:00.291Z,963.2
2022-09-13T11:00:00.180Z,961.9
2022-09-13T11:05:00.312Z,963.2
2022-09-13T11:10:00.171Z,963.8
2022-09-13T11:15:00.193Z,962.7
2022-09-13T11:20:00.191Z,961
2022-09-13T11:25:00.170Z,961.7
2022-09-13T11:30:00.206Z,961.7
2022-09-13T11:35:00.336Z,959.7
2022-09-13T11:40:00.268Z,960.1
2022-09-13T11:45:00.176Z,959.7
2022-09-13T11:50:00.192Z,959
2022-09-13T11:55:00.176Z,958.8
2022-09-13T12:00:00.181Z,960.6
2022-09-13T12:05:21.161Z,958.6
2022-09-13T12:10:00.196Z,958.2
2022-09-13T12:15:00.190Z,959.7
2022-09-13T12:20:00.182Z,958
2022-09-13T12:25:00.166Z,957.1
2022-09-13T12:30:00.202Z,957.5
2022-09-13T12:35:00.239Z,957.5
2022-09-13T12:40:00.262Z,958.4
2022-09-13T12:45:00.160Z,958.8
2022-09-13T12:50:15.947Z,957.5
2022-09-13T12:55:00.184Z,958
2022-09-13T13:00:00.185Z,955.4
2022-09-13T13:05:00.185Z,956.7
2022-09-13T13:10:00.178Z,956.7
2022-09-13T13:15:00.167Z,957.5
2022-09-13T13:20:00.181Z,956.2
2022-09-13T13:25:00.253Z,956.9
2022-09-13T13:30:00.188Z,957.7
2022-09-13T13:35:00.170Z,956
2022-09-13T13:40:00.245Z,956.7
2022-09-13T13:45:00.166Z,957.7
2022-09-13T13:50:00.188Z,956.2
2022-09-13T13:55:00.181Z,956.2
2022-09-13T14:00:00.324Z,957.1
2022-09-13T14:05:00.192Z,957.3
2022-09-13T14:10:00.352Z,958.4
2022-09-13T14:15:00.161Z,958
2022-09-13T14:20:00.300Z,956.9
2022-09-13T14:25:00.169Z,958.4
2022-09-13T14:30:00.242Z,959
2022-09-13T14:35:00.373Z,959.3
2022-09-13T14:40:00.449Z,957.1
2022-09-13T14:45:00.173Z,954.5
2022-09-13T14:50:00.198Z,956.2
2022-09-13T14:55:00.203Z,955.6
2022-09-13T15:00:00.192Z,955.4
2022-09-13T15:05:00.319Z,956.7
2022-09-13T15:10:00.180Z,956.2
2022-09-13T15:15:00.180Z,955.8
2022-09-13T15:20:00.178Z,954.9
2022-09-13T15:25:00.169Z,957.3
2022-09-13T15:30:00.206Z,958.6
2022-09-13T15:35:00.183Z,959.3
2022-09-13T15:40:00.278Z,959.7
2022-09-13T15:45:00.166Z,959.3
2022-09-13T15:50:00.184Z,960.6
2022-09-13T15:55:00.167Z,960.8
2022-09-13T16:00:05.588Z,961.4
2022-09-13T16:05:00.172Z,961.4
2022-09-13T16:10:00.189Z,961.9
2022-09-13T16:15:00.178Z,963.4
2022-09-13T16:20:00.193Z,964
2022-09-13T16:25:00.177Z,964.5
2022-09-13T16:30:00.180Z,965.4
2022-09-13T16:35:00.188Z,966.2
2022-09-13T16:40:00.308Z,967.1
2022-09-13T16:45:00.220Z,967.5
2022-09-13T16:50:00.168Z,968.4
2022-09-13T16:55:00.156Z,968.4
2022-09-13T17:00:00.331Z,968.6
2022-09-13T17:05:00.232Z,968.8
2022-09-13T17:10:00.294Z,969.7
2022-09-13T17:15:00.783Z,969.7
2022-09-13T17:20:00.512Z,970.1
2022-09-13T17:25:00.235Z,970.1
2022-09-13T17:30:00.265Z,970.6
2022-09-13T17:35:00.319Z,971
2022-09-13T17:40:00.308Z,971.4
2022-09-13T17:45:00.242Z,971.7
2022-09-13T17:50:00.428Z,971.9
2022-09-13T17:55:00.243Z,971.9
2022-09-13T18:00:00.292Z,972.1
2022-09-13T18:05:04.671Z,972.3
2022-09-13T18:10:00.168Z,972.5
2022-09-13T18:15:00.220Z,973.2
2022-09-13T18:20:00.437Z,973.2
2022-09-13T18:25:00.178Z,973.6
2022-09-13T18:30:00.372Z,973.6
2022-09-13T18:35:00.633Z,974.5
2022-09-13T18:40:00.242Z,974.9
2022-09-13T18:45:00.168Z,974.9
2022-09-13T18:50:00.549Z,975.1
2022-09-13T18:55:00.499Z,974.9
2022-09-13T19:00:00.191Z,975.4
2022-09-13T19:05:02.485Z,975.4
2022-09-13T19:10:00.198Z,976.2
2022-09-13T19:15:02.701Z,976.2
2022-09-13T19:20:00.204Z,976.7
2022-09-13T19:25:00.206Z,976.7
2022-09-13T19:30:00.232Z,976.7
2022-09-13T19:35:00.181Z,976.2
2022-09-13T19:40:00.331Z,977.1
2022-09-13T19:45:00.259Z,976.7
2022-09-13T19:50:00.184Z,977.5
2022-09-13T19:55:00.177Z,976.4
2022-09-13T20:00:00.177Z,977.3
2022-09-13T20:05:01.371Z,977.1
2022-09-13T20:10:00.190Z,977.3
2022-09-13T20:15:00.193Z,977.5
2022-09-13T20:20:00.173Z,977.5
2022-09-13T20:25:00.190Z,977.3
2022-09-13T20:30:00.188Z,977.5
2022-09-13T20:35:00.176Z,978
2022-09-13T20:40:00.357Z,978.4
2022-09-13T20:45:00.250Z,978
2022-09-13T20:50:00.175Z,978.6
2022-09-13T20:55:00.167Z,978.6
2022-09-13T21:00:00.188Z,978.4
2022-09-13T21:05:00.179Z,978.8
2022-09-13T21:10:00.184Z,978.8
2022-09-13T21:15:00.204Z,978.4
2022-09-13T21:20:00.184Z,978.8
2022-09-13T21:25:00.172Z,978.4
2022-09-13T21:30:00.176Z,978.4
2022-09-13T21:35:00.174Z,979.7
2022-09-13T21:40:00.286Z,979.7
2022-09-13T21:45:00.168Z,979.7
2022-09-13T21:50:00.165Z,979.3
2022-09-13T21:55:00.172Z,978.8
2022-09-13T22:00:00.171Z,978.6
2022-09-13T22:05:00.164Z,979.3
2022-09-13T22:10:00.185Z,979.7
2022-09-13T22:15:00.177Z,979
2022-09-13T22:20:00.200Z,979.7
2022-09-13T22:25:00.179Z,980.1
2022-09-13T22:30:00.207Z,979.9
2022-09-13T22:35:00.169Z,980.1
2022-09-13T22:40:00.291Z,979.9
2022-09-13T22:45:00.173Z,979.7
2022-09-13T22:50:00.167Z,980.1
2022-09-13T22:55:00.182Z,980.6
2022-09-13T23:00:00.176Z,980.6
2022-09-13T23:05:00.173Z,980.1
2022-09-13T23:10:00.206Z,980.1
2022-09-13T23:15:00.181Z,980.4
2022-09-13T23:20:00.177Z,981.2
2022-09-13T23:25:00.176Z,981
2022-09-13T23:30:00.173Z,981
2022-09-13T23:35:00.183Z,980.1
2022-09-13T23:40:00.297Z,980.6
2022-09-13T23:45:00.186Z,980.6
2022-09-13T23:50:00.213Z,980.1
2022-09-13T23:55:00.177Z,980.1
